createdAt,value
2018-07-19T00:01:27.323Z,101047.44
2018-07-19T00:03:56.041Z,101040.97
2018-07-19T00:06:24.843Z,101040.44
2018-07-19T00:08:53.638Z,101044.34
2018-07-19T00:11:22.458Z,101040.27
2018-07-19T00:13:51.301Z,101041.59
2018-07-19T00:16:20.039Z,101040.23
2018-07-19T00:18:48.822Z,101042.92
2018-07-19T00:21:17.573Z,101042.91
2018-07-19T00:23:46.373Z,101038.66
2018-07-19T00:26:15.166Z,101046.13
2018-07-19T00:28:43.983Z,101044.41
2018-07-19T00:31:12.697Z,101047.45
2018-07-19T00:33:41.422Z,101041.16
2018-07-19T00:36:10.186Z,101041.34
2018-07-19T00:38:38.985Z,101039.77
2018-07-19T00:41:08.150Z,101041.80
2018-07-19T00:43:36.997Z,101046.02
2018-07-19T00:46:05.775Z,101045.70
2018-07-19T00:48:34.533Z,101043.80
2018-07-19T00:51:03.304Z,101042.77
2018-07-19T00:53:32.076Z,101039.87
2018-07-19T00:56:00.872Z,101049.19
2018-07-19T00:58:29.663Z,101034.25
2018-07-19T01:00:58.413Z,101038.97
2018-07-19T01:03:27.178Z,101038.78
2018-07-19T01:05:55.969Z,101046.42
2018-07-19T01:08:24.787Z,101041.30
2018-07-19T01:10:53.532Z,101041.48
2018-07-19T01:13:22.360Z,101041.27
2018-07-19T01:15:51.231Z,101036.19
2018-07-19T01:18:20.082Z,101022.27
2018-07-19T01:20:48.974Z,101021.28
2018-07-19T01:23:17.683Z,101023.04
2018-07-19T01:25:46.467Z,101024.27
2018-07-19T01:28:15.861Z,101023.45
2018-07-19T01:30:44.583Z,101026.56
2018-07-19T01:33:14.052Z,101019.48
2018-07-19T01:35:42.813Z,101027.16
2018-07-19T01:38:11.609Z,101029.05
2018-07-19T01:40:40.417Z,101025.66
2018-07-19T01:43:09.170Z,101028.58
2018-07-19T01:45:37.900Z,101025.20
2018-07-19T01:48:06.893Z,101019.08
2018-07-19T01:50:35.649Z,101023.00
2018-07-19T01:53:04.413Z,101021.88
2018-07-19T01:55:33.177Z,101021.69
2018-07-19T01:58:01.918Z,101023.07
2018-07-19T02:00:31.544Z,101016.27
2018-07-19T02:03:00.396Z,101010.50
2018-07-19T02:05:29.185Z,101018.14
2018-07-19T02:07:58.009Z,101012.05
2018-07-19T02:10:26.759Z,101005.75
2018-07-19T02:12:55.560Z,101004.91
2018-07-19T02:15:24.332Z,101013.23
2018-07-19T02:17:53.101Z,101008.31
2018-07-19T02:20:21.856Z,101004.05
2018-07-19T02:22:50.674Z,101005.94
2018-07-19T02:25:19.433Z,101004.39
2018-07-19T02:27:48.221Z,101008.13
2018-07-19T02:30:16.935Z,101005.23
2018-07-19T02:32:46.690Z,101007.61
2018-07-19T02:35:15.466Z,101002.02
2018-07-19T02:37:44.235Z,101011.36
2018-07-19T02:40:12.973Z,101007.48
2018-07-19T02:42:41.682Z,101010.87
2018-07-19T02:45:10.461Z,101009.35
2018-07-19T02:47:39.246Z,101007.81
2018-07-19T02:50:08.029Z,101012.05
2018-07-19T02:52:36.780Z,101015.12
2018-07-19T02:55:05.740Z,101010.86
2018-07-19T02:57:34.509Z,101010.70
2018-07-19T03:00:03.221Z,101017.32
2018-07-19T03:02:31.948Z,101014.41
2018-07-19T03:05:00.766Z,101019.20
2018-07-19T03:07:29.493Z,101013.25
2018-07-19T03:09:58.217Z,101012.21
2018-07-19T03:12:26.924Z,101011.52
2018-07-19T03:14:55.664Z,101014.59
2018-07-19T03:17:24.402Z,101009.50
2018-07-19T03:19:53.134Z,101012.89
2018-07-19T03:22:21.836Z,101012.70
2018-07-19T03:24:50.620Z,101011.19
2018-07-19T03:27:19.340Z,101010.15
2018-07-19T03:29:48.118Z,101008.45
2018-07-19T03:32:17.055Z,101003.67
2018-07-19T03:34:45.780Z,101003.02
2018-07-19T03:37:14.616Z,101006.72
2018-07-19T03:39:43.315Z,101006.37
2018-07-19T03:42:12.097Z,101004.86
2018-07-19T03:44:40.838Z,101004.84
2018-07-19T03:47:09.628Z,101008.22
2018-07-19T03:49:38.337Z,101007.88
2018-07-19T03:52:07.200Z,101006.20
2018-07-19T03:54:35.905Z,101006.18
2018-07-19T03:57:04.679Z,101008.23
2018-07-19T03:59:33.450Z,101007.35
2018-07-19T04:02:02.326Z,101009.73
2018-07-19T04:04:31.061Z,101014.48
2018-07-19T04:06:59.879Z,101014.98
2018-07-19T04:09:28.581Z,101013.28
2018-07-19T04:11:57.318Z,101014.29
2018-07-19T04:14:26.081Z,101021.26
2018-07-19T04:16:54.835Z,101021.73
2018-07-19T04:19:23.587Z,101021.58
2018-07-19T04:21:52.341Z,101017.45
2018-07-19T04:24:21.151Z,101021.38
2018-07-19T04:26:49.902Z,101020.50
2018-07-19T04:29:18.653Z,101018.47
2018-07-19T04:31:47.370Z,101021.34
2018-07-19T04:34:16.405Z,101021.82
2018-07-19T04:36:45.161Z,101019.76
2018-07-19T04:39:13.844Z,101016.69
2018-07-19T04:41:42.744Z,101020.45
2018-07-19T04:44:11.488Z,101016.52
2018-07-19T04:46:40.245Z,101013.09
2018-07-19T04:49:09.011Z,101020.91
2018-07-19T04:51:37.884Z,101018.69
2018-07-19T04:54:07.125Z,101018.34
2018-07-19T04:56:35.999Z,101018.15
2018-07-19T04:59:05.195Z,101017.28
2018-07-19T05:01:33.993Z,101019.31
2018-07-19T05:04:02.806Z,101021.33
2018-07-19T05:06:31.578Z,101018.91
2018-07-19T05:09:00.366Z,101017.19
2018-07-19T05:11:29.081Z,101018.20
2018-07-19T05:13:57.907Z,101018.34
2018-07-19T05:16:26.634Z,101019.02
2018-07-19T05:18:55.393Z,101022.23
2018-07-19T05:21:24.189Z,101020.52
2018-07-19T05:23:52.902Z,101022.53
2018-07-19T05:26:21.609Z,101023.20
2018-07-19T05:28:50.469Z,101024.23
2018-07-19T05:31:19.244Z,101032.05
2018-07-19T05:33:48.022Z,101026.75
2018-07-19T05:36:16.802Z,101025.03
2018-07-19T05:38:45.659Z,101028.75
2018-07-19T05:41:14.462Z,101022.09
2018-07-19T05:43:43.221Z,101025.98
2018-07-19T05:46:12.150Z,101023.75
2018-07-19T05:48:40.870Z,101028.50
2018-07-19T05:51:09.662Z,101024.05
2018-07-19T05:53:38.476Z,101031.01
2018-07-19T05:56:07.234Z,101022.97
2018-07-19T05:58:35.983Z,101026.70
2018-07-19T06:01:04.750Z,101023.78
2018-07-19T06:03:33.487Z,101025.63
2018-07-19T06:06:02.257Z,101023.05
2018-07-19T06:08:31.039Z,101033.60
2018-07-19T06:10:59.787Z,101023.34
2018-07-19T06:13:28.509Z,101023.48
2018-07-19T06:15:57.339Z,101021.77
2018-07-19T06:18:26.065Z,101014.27
2018-07-19T06:20:54.773Z,101020.20
2018-07-19T06:23:23.584Z,101018.64
2018-07-19T06:25:53.320Z,101013.33
2018-07-19T06:28:22.245Z,101016.20
2018-07-19T06:30:50.963Z,101014.13
2018-07-19T06:33:19.797Z,101014.81
2018-07-19T06:35:48.861Z,101012.73
2018-07-19T06:38:17.592Z,101025.47
2018-07-19T06:40:46.329Z,101016.27
2018-07-19T06:43:15.089Z,101015.89
2018-07-19T06:45:43.862Z,101018.77
2018-07-19T06:48:12.597Z,101009.55
2018-07-19T06:50:41.389Z,101011.57
2018-07-19T06:53:10.148Z,101018.02
2018-07-19T06:55:38.904Z,101015.44
2018-07-19T06:58:07.741Z,101008.41
2018-07-19T07:00:36.513Z,101008.20
2018-07-19T07:03:05.317Z,101012.13
2018-07-19T07:05:34.130Z,101007.33
2018-07-19T07:08:02.945Z,101007.16
2018-07-19T07:10:31.673Z,101005.93
2018-07-19T07:13:00.434Z,101002.14
2018-07-19T07:15:29.238Z,101004.70
2018-07-19T07:17:58.049Z,101008.59
2018-07-19T07:20:26.785Z,101009.75
2018-07-19T07:22:55.517Z,101004.16
2018-07-19T07:25:24.251Z,101003.09
2018-07-19T07:27:53.080Z,101007.34
2018-07-19T07:30:21.851Z,101006.31
2018-07-19T07:32:50.627Z,101001.19
2018-07-19T07:35:19.432Z,101006.65
2018-07-19T07:37:49.060Z,101006.14
2018-07-19T07:40:17.879Z,101005.08
2018-07-19T07:42:46.697Z,101004.57
2018-07-19T07:45:15.417Z,101010.89
2018-07-19T07:47:44.237Z,101006.28
2018-07-19T07:50:12.982Z,101007.64
2018-07-19T07:52:41.760Z,101009.01
2018-07-19T07:55:10.610Z,101005.22
2018-07-19T07:57:39.428Z,101006.59
2018-07-19T08:00:08.237Z,101011.20
2018-07-19T08:02:37.008Z,100998.59
2018-07-19T08:05:05.969Z,101003.55
2018-07-19T08:07:34.788Z,101005.73
2018-07-19T08:10:03.594Z,101004.37
2018-07-19T08:12:32.357Z,101010.37
2018-07-19T08:15:01.138Z,101004.57
2018-07-19T08:17:30.005Z,101005.42
2018-07-19T08:19:58.914Z,101003.00
2018-07-19T08:22:27.721Z,101001.33
2018-07-19T08:24:56.510Z,101002.35
2018-07-19T08:27:25.272Z,101003.20
2018-07-19T08:29:54.025Z,100995.52
2018-07-19T08:32:22.829Z,101003.72
2018-07-19T08:34:51.571Z,100994.67
2018-07-19T08:37:20.452Z,100997.61
2018-07-19T08:39:49.355Z,101002.05
2018-07-19T08:42:18.108Z,100994.88
2018-07-19T08:44:46.993Z,100994.53
2018-07-19T08:47:16.513Z,100996.24
2018-07-19T08:49:46.835Z,100994.02
2018-07-19T08:52:15.972Z,100996.95
2018-07-19T08:54:44.770Z,100999.34
2018-07-19T08:57:13.894Z,100999.55
2018-07-19T08:59:42.727Z,100992.55
2018-07-19T09:02:11.522Z,100994.73
2018-07-19T09:04:40.241Z,100998.19
2018-07-19T09:07:09.148Z,100997.67
2018-07-19T09:09:38.038Z,100990.70
2018-07-19T09:12:06.845Z,100995.83
2018-07-19T09:14:35.594Z,100989.72
2018-07-19T09:17:04.345Z,100997.05
2018-07-19T09:19:34.312Z,100991.59
2018-07-19T09:22:03.084Z,100992.65
2018-07-19T09:24:31.885Z,100996.23
2018-07-19T09:27:00.674Z,100990.94
2018-07-19T09:29:29.460Z,100995.89
2018-07-19T09:31:58.254Z,100995.55
2018-07-19T09:34:27.060Z,100995.55
2018-07-19T09:36:55.856Z,100998.28
2018-07-19T09:39:24.655Z,100998.28
2018-07-19T09:41:53.415Z,101002.38
2018-07-19T09:44:22.259Z,100994.39
2018-07-19T09:46:51.040Z,100994.05
2018-07-19T09:49:19.815Z,100998.14
2018-07-19T09:51:48.576Z,100995.61
2018-07-19T09:54:28.314Z,100992.03
2018-07-19T09:56:57.078Z,101000.73
2018-07-19T09:59:25.866Z,100990.86
2018-07-19T10:01:54.647Z,100990.19
2018-07-19T10:04:23.415Z,100988.00
2018-07-19T10:06:52.155Z,100985.44
2018-07-19T10:09:20.966Z,100982.40
2018-07-19T10:11:49.842Z,100989.73
2018-07-19T10:14:18.642Z,100987.17
2018-07-19T10:16:47.417Z,100983.63
2018-07-19T10:19:16.199Z,100982.94
2018-07-19T10:21:45.018Z,100988.39
2018-07-19T10:24:13.850Z,100991.84
2018-07-19T10:26:42.701Z,100991.50
2018-07-19T10:29:11.414Z,100984.36
2018-07-19T10:31:40.223Z,100984.88
2018-07-19T10:34:09.207Z,100985.08
2018-07-19T10:36:37.981Z,100976.03
2018-07-19T10:39:08.365Z,100980.30
2018-07-19T10:41:37.166Z,100976.20
2018-07-19T10:44:05.947Z,100978.11
2018-07-19T10:46:34.652Z,100975.55
2018-07-19T10:49:03.590Z,100975.55
2018-07-19T10:51:32.410Z,100974.39
2018-07-19T10:54:01.199Z,100968.59
2018-07-19T10:56:29.975Z,100970.97
2018-07-19T10:58:58.736Z,100973.20
2018-07-19T11:01:27.464Z,100975.98
2018-07-19T11:03:58.907Z,100968.36
2018-07-19T11:06:27.676Z,100969.05
2018-07-19T11:08:56.426Z,100968.22
2018-07-19T11:11:25.373Z,100972.31
2018-07-19T11:13:56.036Z,100965.49
2018-07-19T11:16:24.834Z,100960.55
2018-07-19T11:18:53.741Z,100962.77
2018-07-19T11:21:22.601Z,100961.41
2018-07-19T11:23:51.375Z,100961.91
2018-07-19T11:26:20.139Z,100962.77
2018-07-19T11:28:56.340Z,100959.69
2018-07-19T11:31:25.097Z,100962.77
2018-07-19T11:33:53.971Z,100958.13
2018-07-19T11:36:22.786Z,100955.94
2018-07-19T11:38:51.659Z,100962.77
2018-07-19T11:41:20.433Z,100951.85
2018-07-19T11:43:49.164Z,100957.62
2018-07-19T11:46:18.145Z,100952.16
2018-07-19T11:48:47.044Z,100950.28
2018-07-19T11:51:16.005Z,100959.33
2018-07-19T11:53:44.781Z,100951.14
2018-07-19T11:56:14.200Z,100957.45
2018-07-19T11:58:42.999Z,100949.58
2018-07-19T12:01:11.953Z,100937.80
2018-07-19T12:03:40.793Z,100943.61
2018-07-19T12:06:09.550Z,100942.24
2018-07-19T12:08:38.319Z,100952.64
2018-07-19T12:11:07.063Z,100946.67
2018-07-19T12:13:35.884Z,100946.34
2018-07-19T12:16:04.807Z,100946.67
2018-07-19T12:18:33.620Z,100948.05
2018-07-19T12:21:02.409Z,100949.72
2018-07-19T12:23:31.206Z,100958.25
2018-07-19T12:26:00.003Z,100949.72
2018-07-19T12:28:28.767Z,100960.46
2018-07-19T12:30:57.494Z,100956.37
2018-07-19T12:33:26.305Z,100960.27
2018-07-19T12:35:55.418Z,100957.88
2018-07-19T12:38:24.181Z,100952.41
2018-07-19T12:40:52.915Z,100959.75
2018-07-19T12:43:21.714Z,100964.35
2018-07-19T12:45:50.505Z,100962.98
2018-07-19T12:48:19.313Z,100965.38
2018-07-19T12:50:48.053Z,100959.23
2018-07-19T12:53:16.870Z,100959.75
2018-07-19T12:55:45.644Z,100962.79
2018-07-19T12:58:14.465Z,100962.28
2018-07-19T13:00:43.242Z,100960.06
2018-07-19T13:03:12.025Z,100959.55
2018-07-19T13:05:40.740Z,100965.34
2018-07-19T13:08:09.528Z,100986.67
2018-07-19T13:10:38.388Z,100965.34
2018-07-19T13:13:07.148Z,100960.75
2018-07-19T13:15:35.884Z,100960.23
2018-07-19T13:18:04.759Z,100964.33
2018-07-19T13:20:33.558Z,100965.83
2018-07-19T13:23:02.503Z,100959.52
2018-07-19T13:25:31.270Z,100961.73
2018-07-19T13:28:00.120Z,100972.11
2018-07-19T13:30:28.901Z,100970.23
2018-07-19T13:32:57.818Z,100972.45
2018-07-19T13:35:26.682Z,100964.47
2018-07-19T13:37:55.445Z,100967.20
2018-07-19T13:40:24.266Z,100978.42
2018-07-19T13:42:53.108Z,100972.11
2018-07-19T13:45:21.901Z,100966.66
2018-07-19T13:47:50.627Z,100964.78
2018-07-19T13:50:19.437Z,100960.68
2018-07-19T13:52:59.210Z,100962.91
2018-07-19T13:55:28.094Z,100979.27
2018-07-19T13:57:59.788Z,100980.30
2018-07-19T14:00:28.545Z,100983.71
2018-07-19T14:02:57.330Z,100972.11
2018-07-19T14:05:26.127Z,100974.33
2018-07-19T14:07:54.925Z,100965.63
2018-07-19T14:10:23.765Z,100967.34
2018-07-19T14:12:52.934Z,100962.70
2018-07-19T14:15:21.740Z,100965.26
2018-07-19T14:17:50.513Z,100965.77
2018-07-19T14:20:19.282Z,100969.35
2018-07-19T14:22:48.134Z,100967.64
2018-07-19T14:25:17.055Z,100975.84
2018-07-19T14:27:46.031Z,100971.73
2018-07-19T14:30:14.808Z,100972.59
2018-07-19T14:32:43.634Z,100971.23
2018-07-19T14:35:12.489Z,100964.41
2018-07-19T14:37:41.291Z,100960.31
2018-07-19T14:40:10.122Z,100957.07
2018-07-19T14:42:38.946Z,100959.80
2018-07-19T14:45:08.175Z,100956.56
2018-07-19T14:47:36.973Z,100956.87
2018-07-19T14:50:05.977Z,100953.28
2018-07-19T14:52:34.775Z,100962.02
2018-07-19T14:55:03.653Z,100963.18
2018-07-19T14:57:32.590Z,100962.33
2018-07-19T15:00:01.390Z,100953.28
2018-07-19T15:02:30.262Z,100954.99
2018-07-19T15:04:59.489Z,100953.97
2018-07-19T15:07:28.366Z,100952.61
2018-07-19T15:09:57.140Z,100946.30
2018-07-19T15:12:25.993Z,100952.41
2018-07-19T15:14:54.809Z,100955.13
2018-07-19T15:17:23.639Z,100946.95
2018-07-19T15:19:52.422Z,100948.82
2018-07-19T15:22:21.267Z,100945.06
2018-07-19T15:24:50.042Z,100946.44
2018-07-19T15:27:18.838Z,100941.83
2018-07-19T15:29:47.594Z,100945.06
2018-07-19T15:32:16.375Z,100939.95
2018-07-19T15:34:45.130Z,100935.86
2018-07-19T15:37:13.969Z,100932.58
2018-07-19T15:39:42.758Z,100929.03
2018-07-19T15:42:11.602Z,100920.84
2018-07-19T15:44:40.450Z,100924.39
2018-07-19T15:47:09.203Z,100923.88
2018-07-19T15:49:37.932Z,100920.84
2018-07-19T15:52:06.851Z,100914.33
2018-07-19T15:54:35.707Z,100915.70
2018-07-19T15:57:04.675Z,100908.56
2018-07-19T15:59:33.455Z,100907.20
2018-07-19T16:02:02.266Z,100906.66
2018-07-19T16:04:31.376Z,100907.20
2018-07-19T16:07:00.275Z,100912.97
2018-07-19T16:09:29.095Z,100909.92
2018-07-19T16:11:57.918Z,100907.50
2018-07-19T16:14:26.793Z,100907.20
2018-07-19T16:16:55.646Z,100905.83
2018-07-19T16:19:24.483Z,100905.83
2018-07-19T16:21:53.338Z,100909.38
2018-07-19T16:24:22.209Z,100904.47
2018-07-19T16:26:50.980Z,100910.44
2018-07-19T16:29:19.820Z,100904.64
2018-07-19T16:31:48.699Z,100898.66
2018-07-19T16:34:17.471Z,100903.27
2018-07-19T16:36:46.309Z,100899.69
2018-07-19T16:39:15.148Z,100901.05
2018-07-19T16:41:43.897Z,100895.59
2018-07-19T16:44:12.711Z,100903.78
2018-07-19T16:46:41.577Z,100902.63
2018-07-19T16:49:10.373Z,100896.11
2018-07-19T16:51:39.161Z,100903.48
2018-07-19T16:54:07.953Z,100903.61
2018-07-19T16:56:36.781Z,100903.03
2018-07-19T16:59:05.654Z,100898.09
2018-07-19T17:01:34.439Z,100908.84
2018-07-19T17:04:03.238Z,100904.40
2018-07-19T17:06:32.041Z,100913.44
2018-07-19T17:09:00.841Z,100909.86
2018-07-19T17:11:29.625Z,100910.38
2018-07-19T17:13:58.485Z,100919.92
2018-07-19T17:16:27.201Z,100914.98
2018-07-19T17:18:55.950Z,100916.89
2018-07-19T17:21:24.802Z,100913.81
2018-07-19T17:23:53.642Z,100923.16
2018-07-19T17:26:22.537Z,100920.12
2018-07-19T17:28:51.459Z,100922.00
2018-07-19T17:31:20.536Z,100922.52
2018-07-19T17:33:49.350Z,100921.49
2018-07-19T17:36:18.185Z,100928.31
2018-07-19T17:38:47.045Z,100923.88
2018-07-19T17:41:15.863Z,100927.47
2018-07-19T17:43:44.727Z,100927.98
2018-07-19T17:46:13.598Z,100937.02
2018-07-19T17:48:42.356Z,100933.64
2018-07-19T17:51:11.191Z,100938.89
2018-07-19T17:53:40.090Z,100927.67
2018-07-19T17:56:08.951Z,100931.22
2018-07-19T17:58:37.712Z,100928.83
2018-07-19T18:01:06.618Z,100929.85
2018-07-19T18:03:36.189Z,100928.31
2018-07-19T18:06:05.267Z,100934.28
2018-07-19T18:08:34.222Z,100934.28
2018-07-19T18:11:03.068Z,100941.31
2018-07-19T18:13:31.982Z,100943.84
2018-07-19T18:16:00.800Z,100949.81
2018-07-19T18:18:29.594Z,100947.08
2018-07-19T18:20:58.400Z,100955.27
2018-07-19T18:23:27.246Z,100954.76
2018-07-19T18:25:56.087Z,100959.70
2018-07-19T18:28:24.864Z,100962.09
2018-07-19T18:30:54.354Z,100959.05
2018-07-19T18:33:23.104Z,100959.56
2018-07-19T18:35:51.962Z,100964.17
2018-07-19T18:38:20.787Z,100962.81
2018-07-19T18:40:49.921Z,100963.32
2018-07-19T18:43:18.722Z,100961.10
2018-07-19T18:45:47.590Z,100963.52
2018-07-19T18:48:16.431Z,100962.16
2018-07-19T18:50:45.280Z,100963.52
2018-07-19T18:53:14.043Z,100966.25
2018-07-19T18:55:42.843Z,100965.05
2018-07-19T18:58:11.654Z,100968.30
2018-07-19T19:00:40.508Z,100971.02
2018-07-19T19:03:09.401Z,100978.39
2018-07-19T19:05:38.176Z,100977.20
2018-07-19T19:08:07.000Z,100983.52
2018-07-19T19:10:35.768Z,100982.66
2018-07-19T19:13:04.788Z,100977.40
2018-07-19T19:15:33.659Z,100978.77
2018-07-19T19:18:02.525Z,100983.88
2018-07-19T19:20:31.392Z,100982.52
2018-07-19T19:23:00.217Z,100985.75
2018-07-19T19:25:29.087Z,100980.30
2018-07-19T19:27:57.956Z,100978.63
2018-07-19T19:30:26.760Z,100981.86
2018-07-19T19:32:55.568Z,100983.43
2018-07-19T19:35:24.351Z,100982.58
2018-07-19T19:37:53.194Z,100982.58
2018-07-19T19:40:22.122Z,100977.28
2018-07-19T19:42:50.906Z,100976.98
2018-07-19T19:45:19.784Z,100985.53
2018-07-19T19:47:48.646Z,100975.70
2018-07-19T19:50:17.442Z,100976.40
2018-07-19T19:52:46.209Z,100974.23
2018-07-19T19:55:15.012Z,100975.83
2018-07-19T19:57:43.806Z,100976.90
2018-07-19T20:00:12.625Z,100978.83
2018-07-19T20:02:41.496Z,100976.31
2018-07-19T20:05:10.273Z,100979.06
2018-07-19T20:07:39.090Z,100976.05
2018-07-19T20:10:08.126Z,100977.97
2018-07-19T20:12:37.013Z,100977.16
2018-07-19T20:15:06.135Z,100970.05
2018-07-19T20:17:34.971Z,100970.55
2018-07-19T20:20:03.825Z,100975.19
2018-07-19T20:22:32.633Z,100972.16
2018-07-19T20:25:01.414Z,100965.05
2018-07-19T20:27:30.247Z,100970.86
2018-07-19T20:29:59.126Z,100969.71
2018-07-19T20:32:28.138Z,100961.74
2018-07-19T20:34:56.953Z,100968.59
2018-07-19T20:37:25.725Z,100967.28
2018-07-19T20:39:54.496Z,100970.52
2018-07-19T20:42:23.371Z,100968.34
2018-07-19T20:44:52.146Z,100968.38
2018-07-19T20:47:20.911Z,100962.05
2018-07-19T20:49:49.764Z,100963.45
2018-07-19T20:52:18.534Z,100965.67
2018-07-19T20:54:47.356Z,100962.14
2018-07-19T20:57:16.136Z,100970.85
2018-07-19T20:59:44.919Z,100974.94
2018-07-19T21:02:13.748Z,100970.89
2018-07-19T21:04:42.502Z,100970.58
2018-07-19T21:07:11.257Z,100967.00
2018-07-19T21:09:40.079Z,100963.80
2018-07-19T21:12:08.849Z,100960.27
2018-07-19T21:14:37.725Z,100960.26
2018-07-19T21:17:06.528Z,100961.11
2018-07-19T21:19:35.325Z,100962.98
2018-07-19T21:22:04.167Z,100963.86
2018-07-19T21:24:32.959Z,100961.64
2018-07-19T21:27:01.756Z,100966.25
2018-07-19T21:29:30.538Z,100961.85
2018-07-19T21:31:59.371Z,100962.70
2018-07-19T21:34:28.157Z,100960.87
2018-07-19T21:36:57.002Z,100966.65
2018-07-19T21:39:25.798Z,100959.02
2018-07-19T21:41:55.617Z,100959.87
2018-07-19T21:44:24.499Z,100961.22
2018-07-19T21:46:53.260Z,100965.13
2018-07-19T21:49:22.068Z,100959.20
2018-07-19T21:51:50.799Z,100961.77
2018-07-19T21:54:19.570Z,100959.39
2018-07-19T21:56:48.379Z,100956.47
2018-07-19T21:59:17.394Z,100962.75
2018-07-19T22:01:47.168Z,100958.69
2018-07-19T22:04:17.211Z,100961.56
2018-07-19T22:06:46.722Z,100956.14
2018-07-19T22:09:15.517Z,100958.20
2018-07-19T22:11:44.316Z,100955.81
2018-07-19T22:14:13.104Z,100953.25
2018-07-19T22:16:41.881Z,100953.94
2018-07-19T22:19:10.702Z,100951.55
2018-07-19T22:21:39.525Z,100951.07
2018-07-19T22:24:08.580Z,100946.83
2018-07-19T22:26:37.336Z,100946.12
2018-07-19T22:29:06.162Z,100946.81
2018-07-19T22:31:34.948Z,100948.35
2018-07-19T22:34:03.814Z,100946.83
2018-07-19T22:36:32.607Z,100951.59
2018-07-19T22:39:01.389Z,100953.28
2018-07-19T22:41:30.151Z,100953.43
2018-07-19T22:43:58.975Z,100955.98
2018-07-19T22:46:27.799Z,100947.16
2018-07-19T22:48:56.906Z,100954.63
2018-07-19T22:51:25.998Z,100945.07
2018-07-19T22:53:54.965Z,100945.61
2018-07-19T22:56:23.872Z,100950.02
2018-07-19T22:58:52.675Z,100946.61
2018-07-19T23:01:21.491Z,100945.27
2018-07-19T23:03:50.301Z,100944.25
2018-07-19T23:06:19.133Z,100937.80
2018-07-19T23:08:48.248Z,100932.38
2018-07-19T23:11:17.060Z,100931.86
2018-07-19T23:13:46.155Z,100935.77
2018-07-19T23:16:15.207Z,100933.22
2018-07-19T23:18:44.093Z,100935.27
2018-07-19T23:21:12.917Z,100924.05
2018-07-19T23:23:41.678Z,100929.11
2018-07-19T23:26:10.464Z,100926.91
2018-07-19T23:28:39.292Z,100922.50
2018-07-19T23:31:08.282Z,100926.23
2018-07-19T23:33:37.153Z,100926.91
2018-07-19T23:36:10.406Z,100927.42
2018-07-19T23:38:46.076Z,100916.73
2018-07-19T23:41:19.114Z,100919.62
2018-07-19T23:43:51.265Z,100911.63
2018-07-19T23:46:23.769Z,100913.14
2018-07-19T23:48:52.642Z,100911.09
2018-07-19T23:51:21.364Z,100912.61
2018-07-19T23:53:50.111Z,100910.56
2018-07-19T23:56:18.885Z,100907.18
2018-07-19T23:58:47.625Z,100908.70
